LEAB/ABC METAR and TAF weather

Enter ICAO airport designator
Station Type Date Time Source
LEAB METAR 2022/01/28 00:00 UTC NOAA

LEAB 280000Z 12004KT CAVOK 02/M01 Q1030 NOSIG


Station Type Date Time Source
LEAB Decoded METAR 2022/01/28 00:00 UTC NOAA

Albacete / Los Llanos, Spain (LEAB) 38-57N 001-51W 704M
Jan 27, 2022 - 07:00 PM EST / 2022.01.28 0000 UTC
Wind: from the ESE (120 degrees) at 5 MPH (4 KT):0
Visibility: greater than 7 mile(s):0
Temperature: 35 F (2 C)
Windchill: 30 F (-1 C):1
Dew Point: 30 F (-1 C)
Relative Humidity: 80%
Pressure (altimeter): 30.42 in. Hg (1030 hPa)
ob: LEAB 280000Z 12004KT CAVOK 02/M01 Q1030 NOSIG
cycle: 0

Station Type Date Time Source
LEAB TAF 2022/01/27 18:27 UTC NOAA

TAF LEAB 271700Z 2718/2818 14006KT CAVOK TX14/2815Z TNM04/2807Z PROB40
TEMPO 2806/2810 0200 FZFG VV001 PROB30
TEMPO 2800/2810 3000 BR BKN004

Example: see airport list